createdAt,value
2019-05-20T00:00:55.498Z,991.26
2019-05-20T00:01:55.406Z,991.22
2019-05-20T00:02:55.397Z,991.26
2019-05-20T00:03:55.393Z,991.21
2019-05-20T00:04:55.347Z,991.22
2019-05-20T00:05:55.540Z,991.22
2019-05-20T00:06:55.461Z,991.28
2019-05-20T00:07:55.358Z,991.30
2019-05-20T00:08:55.307Z,991.29
2019-05-20T00:09:55.327Z,991.28
2019-05-20T00:10:55.312Z,991.28
2019-05-20T00:11:55.401Z,991.34
2019-05-20T00:12:55.289Z,991.34
2019-05-20T00:13:55.258Z,991.25
2019-05-20T00:14:55.268Z,991.33
2019-05-20T00:15:55.261Z,991.28
2019-05-20T00:16:55.252Z,991.32
2019-05-20T00:17:55.252Z,991.24
2019-05-20T00:18:55.218Z,991.32
2019-05-20T00:19:55.201Z,991.31
2019-05-20T00:20:55.198Z,991.32
2019-05-20T00:21:55.298Z,991.27
2019-05-20T00:22:55.179Z,991.29
2019-05-20T00:23:55.162Z,991.22
2019-05-20T00:24:55.149Z,991.29
2019-05-20T00:25:55.152Z,991.24
2019-05-20T00:26:55.208Z,991.28
2019-05-20T00:27:55.108Z,991.22
2019-05-20T00:28:55.219Z,991.23
2019-05-20T00:29:55.114Z,991.27
2019-05-20T00:30:55.089Z,991.29
2019-05-20T00:31:55.182Z,991.26
2019-05-20T00:32:55.060Z,991.23
2019-05-20T00:33:55.053Z,991.30
2019-05-20T00:34:55.060Z,991.27
2019-05-20T00:35:55.030Z,991.26
2019-05-20T00:36:55.020Z,991.29
2019-05-20T00:37:55.010Z,991.32
2019-05-20T00:38:54.988Z,991.28
2019-05-20T00:39:54.960Z,991.31
2019-05-20T00:40:55.021Z,991.33
2019-05-20T00:41:54.959Z,991.28
2019-05-20T00:42:54.971Z,991.34
2019-05-20T00:43:54.941Z,991.32
2019-05-20T00:44:54.943Z,991.34
2019-05-20T00:45:54.930Z,991.37
2019-05-20T00:46:55.013Z,991.37
2019-05-20T00:47:54.900Z,991.39
2019-05-20T00:48:54.896Z,991.37
2019-05-20T00:49:54.852Z,991.39
2019-05-20T00:50:54.931Z,991.33
2019-05-20T00:51:54.856Z,991.29
2019-05-20T00:52:54.946Z,991.19
2019-05-20T00:53:54.830Z,991.27
2019-05-20T00:54:54.822Z,991.19
2019-05-20T00:55:54.810Z,991.28
2019-05-20T00:56:54.801Z,991.28
2019-05-20T00:57:54.894Z,991.24
2019-05-20T00:58:54.772Z,991.28
2019-05-20T00:59:54.771Z,991.28
2019-05-20T01:00:54.731Z,991.22
2019-05-20T01:01:54.749Z,991.30
2019-05-20T01:02:57.197Z,991.29
2019-05-20T01:03:54.810Z,991.23
2019-05-20T01:04:54.713Z,991.26
2019-05-20T01:05:54.712Z,991.36
2019-05-20T01:06:54.691Z,991.26
2019-05-20T01:07:54.726Z,991.35
2019-05-20T01:08:54.772Z,991.31
2019-05-20T01:09:54.643Z,991.33
2019-05-20T01:10:54.631Z,991.33
2019-05-20T01:11:54.665Z,991.35
2019-05-20T01:12:54.645Z,991.37
2019-05-20T01:13:54.715Z,991.31
2019-05-20T01:14:54.596Z,991.27
2019-05-20T01:15:54.586Z,991.32
2019-05-20T01:16:54.573Z,991.33
2019-05-20T01:17:54.563Z,991.31
2019-05-20T01:18:54.536Z,991.35
2019-05-20T01:19:54.622Z,991.36
2019-05-20T01:20:54.636Z,991.36
2019-05-20T01:21:54.527Z,991.29
2019-05-20T01:22:54.503Z,991.26
2019-05-20T01:23:54.493Z,991.37
2019-05-20T01:24:54.492Z,991.38
2019-05-20T01:25:54.502Z,991.35
2019-05-20T01:26:54.454Z,991.36
2019-05-20T01:27:54.434Z,991.35
2019-05-20T01:28:54.443Z,991.33
2019-05-20T01:29:54.433Z,991.34
2019-05-20T01:30:54.393Z,991.30
2019-05-20T01:31:54.524Z,991.35
2019-05-20T01:32:54.406Z,991.30
2019-05-20T01:33:54.384Z,991.25
2019-05-20T01:34:54.386Z,991.27
2019-05-20T01:35:54.474Z,991.26
2019-05-20T01:36:54.454Z,991.29
2019-05-20T01:37:54.346Z,991.23
2019-05-20T01:38:54.334Z,991.24
2019-05-20T01:39:54.304Z,991.31
2019-05-20T01:40:54.318Z,991.22
2019-05-20T01:41:54.394Z,991.26
2019-05-20T01:42:54.335Z,991.26
2019-05-20T01:43:54.256Z,991.23
2019-05-20T01:44:54.242Z,991.27
2019-05-20T01:45:54.254Z,991.27
2019-05-20T01:46:54.258Z,991.36
2019-05-20T01:47:54.236Z,991.29
2019-05-20T01:48:54.195Z,991.29
2019-05-20T01:49:54.239Z,991.38
2019-05-20T01:50:54.221Z,991.40
2019-05-20T01:51:54.175Z,991.49
2019-05-20T01:52:54.189Z,991.45
2019-05-20T01:53:54.167Z,991.58
2019-05-20T01:54:54.154Z,991.52
2019-05-20T01:55:54.146Z,991.57
2019-05-20T01:56:54.248Z,991.59
2019-05-20T01:57:54.126Z,991.54
2019-05-20T01:58:54.086Z,991.59
2019-05-20T01:59:54.206Z,991.49
2019-05-20T02:00:54.106Z,991.53
2019-05-20T02:01:54.092Z,991.57
2019-05-20T02:02:54.076Z,991.57
2019-05-20T02:03:54.069Z,991.58
2019-05-20T02:04:54.126Z,991.60
2019-05-20T02:05:54.036Z,991.58
2019-05-20T02:06:54.027Z,991.61
2019-05-20T02:07:53.996Z,991.60
2019-05-20T02:08:54.095Z,991.57
2019-05-20T02:09:53.997Z,991.54
2019-05-20T02:10:56.436Z,991.50
2019-05-20T02:11:53.976Z,991.50
2019-05-20T02:12:53.962Z,991.54
2019-05-20T02:13:53.948Z,991.51
2019-05-20T02:14:54.047Z,991.50
2019-05-20T02:15:53.926Z,991.54
2019-05-20T02:16:53.924Z,991.55
2019-05-20T02:17:53.916Z,991.54
2019-05-20T02:18:53.876Z,991.53
2019-05-20T02:19:53.912Z,991.41
2019-05-20T02:20:53.950Z,991.50
2019-05-20T02:21:53.877Z,991.45
2019-05-20T02:22:53.847Z,991.49
2019-05-20T02:23:53.841Z,991.46
2019-05-20T02:24:53.827Z,991.39
2019-05-20T02:25:53.917Z,991.42
2019-05-20T02:26:53.809Z,991.37
2019-05-20T02:27:53.796Z,991.35
2019-05-20T02:28:53.787Z,991.36
2019-05-20T02:29:53.768Z,991.35
2019-05-20T02:30:56.909Z,991.40
2019-05-20T02:31:53.845Z,991.42
2019-05-20T02:32:53.728Z,991.47
2019-05-20T02:33:53.840Z,991.37
2019-05-20T02:34:53.698Z,991.40
2019-05-20T02:35:53.712Z,991.33
2019-05-20T02:36:53.786Z,991.37
2019-05-20T02:37:53.692Z,991.32
2019-05-20T02:38:53.654Z,991.43
2019-05-20T02:39:53.726Z,991.41
2019-05-20T02:40:53.653Z,991.41
2019-05-20T02:41:53.752Z,991.47
2019-05-20T02:42:53.648Z,991.44
2019-05-20T02:43:53.619Z,991.45
2019-05-20T02:44:53.601Z,991.43
2019-05-20T02:45:53.607Z,991.47
2019-05-20T02:46:53.588Z,991.51
2019-05-20T02:47:53.650Z,991.44
2019-05-20T02:48:53.544Z,991.51
2019-05-20T02:49:53.553Z,991.53
2019-05-20T02:50:53.533Z,991.45
2019-05-20T02:51:53.538Z,991.52
2019-05-20T02:52:53.490Z,991.45
2019-05-20T02:53:53.500Z,991.48
2019-05-20T02:54:53.517Z,991.46
2019-05-20T02:55:53.480Z,991.43
2019-05-20T02:56:53.480Z,991.40
2019-05-20T02:57:53.563Z,991.40
2019-05-20T02:58:53.449Z,991.41
2019-05-20T02:59:53.441Z,991.33
2019-05-20T03:00:53.412Z,991.39
2019-05-20T03:01:53.554Z,991.34
2019-05-20T03:02:53.410Z,991.34
2019-05-20T03:04:09.986Z,991.42
2019-05-20T03:04:54.382Z,991.35
2019-05-20T03:05:53.359Z,991.47
2019-05-20T03:06:53.349Z,991.41
2019-05-20T03:07:53.453Z,991.38
2019-05-20T03:08:53.400Z,991.40
2019-05-20T03:09:53.361Z,991.34
2019-05-20T03:10:53.345Z,991.32
2019-05-20T03:11:53.317Z,991.40
2019-05-20T03:12:53.301Z,991.39
2019-05-20T03:13:53.291Z,991.41
2019-05-20T03:14:53.270Z,991.40
2019-05-20T03:15:53.374Z,991.37
2019-05-20T03:16:53.284Z,991.39
2019-05-20T03:17:53.240Z,991.43
2019-05-20T03:18:53.257Z,991.44
2019-05-20T03:19:53.262Z,991.43
2019-05-20T03:20:53.251Z,991.44
2019-05-20T03:21:53.201Z,991.50
2019-05-20T03:22:53.192Z,991.51
2019-05-20T03:23:53.182Z,991.46
2019-05-20T03:24:53.171Z,991.47
2019-05-20T03:25:53.207Z,991.43
2019-05-20T03:26:53.281Z,991.50
2019-05-20T03:27:53.143Z,991.49
2019-05-20T03:28:53.111Z,991.52
2019-05-20T03:29:53.122Z,991.51
2019-05-20T03:30:53.172Z,991.51
2019-05-20T03:31:53.124Z,991.53
2019-05-20T03:32:53.095Z,991.56
2019-05-20T03:33:53.093Z,991.49
2019-05-20T03:34:59.469Z,991.49
2019-05-20T03:35:54.095Z,991.52
2019-05-20T03:36:53.046Z,991.61
2019-05-20T03:37:53.035Z,991.55
2019-05-20T03:38:53.022Z,991.61
2019-05-20T03:39:53.006Z,991.53
2019-05-20T03:40:53.001Z,991.60
2019-05-20T03:41:53.094Z,991.60
2019-05-20T03:42:52.975Z,991.63
2019-05-20T03:43:52.975Z,991.60
2019-05-20T03:44:52.953Z,991.60
2019-05-20T03:45:52.943Z,991.65
2019-05-20T03:46:52.932Z,991.63
2019-05-20T03:47:52.912Z,991.75
2019-05-20T03:48:52.897Z,991.83
2019-05-20T03:49:52.915Z,991.84
2019-05-20T03:50:52.886Z,991.79
2019-05-20T03:51:52.884Z,991.78
2019-05-20T03:52:52.943Z,991.85
2019-05-20T03:53:52.859Z,991.90
2019-05-20T03:54:52.922Z,991.89
2019-05-20T03:55:52.851Z,991.95
2019-05-20T03:56:52.826Z,992.02
2019-05-20T03:57:52.833Z,991.87
2019-05-20T03:58:52.772Z,991.90
2019-05-20T03:59:52.793Z,991.95
2019-05-20T04:00:52.815Z,991.97
2019-05-20T04:01:52.786Z,991.90
2019-05-20T04:02:52.736Z,991.94
2019-05-20T04:03:52.744Z,991.94
2019-05-20T04:05:02.594Z,991.89
2019-05-20T04:05:53.831Z,991.93
2019-05-20T04:06:52.793Z,991.91
2019-05-20T04:07:52.699Z,991.93
2019-05-20T04:08:52.665Z,991.92
2019-05-20T04:09:52.714Z,991.98
2019-05-20T04:10:52.656Z,991.91
2019-05-20T04:11:52.651Z,991.85
2019-05-20T04:12:52.663Z,991.87
2019-05-20T04:13:52.618Z,991.85
2019-05-20T04:14:52.608Z,991.80
2019-05-20T04:15:52.584Z,991.82
2019-05-20T04:16:52.590Z,991.83
2019-05-20T04:17:52.575Z,991.82
2019-05-20T04:18:54.126Z,991.88
2019-05-20T04:19:52.547Z,991.90
2019-05-20T04:20:52.545Z,991.87
2019-05-20T04:21:52.524Z,991.95
2019-05-20T04:22:52.514Z,991.92
2019-05-20T04:23:52.508Z,991.90
2019-05-20T04:24:52.516Z,991.85
2019-05-20T04:25:52.485Z,991.85
2019-05-20T04:26:52.479Z,991.82
2019-05-20T04:27:52.457Z,991.85
2019-05-20T04:28:52.458Z,991.82
2019-05-20T04:29:52.445Z,991.83
2019-05-20T04:30:52.438Z,991.78
2019-05-20T04:31:52.442Z,991.73
2019-05-20T04:32:52.405Z,991.77
2019-05-20T04:33:52.407Z,991.84
2019-05-20T04:34:52.386Z,991.87
2019-05-20T04:35:52.385Z,991.82
2019-05-20T04:36:52.365Z,991.84
2019-05-20T04:37:52.345Z,991.85
2019-05-20T04:38:52.336Z,991.84
2019-05-20T04:39:52.328Z,991.78
2019-05-20T04:40:52.387Z,991.79
2019-05-20T04:41:52.327Z,991.77
2019-05-20T04:42:52.286Z,991.82
2019-05-20T04:43:52.401Z,991.73
2019-05-20T04:44:52.274Z,991.76
2019-05-20T04:45:52.320Z,991.76
2019-05-20T04:46:52.265Z,991.73
2019-05-20T04:47:52.256Z,991.73
2019-05-20T04:48:52.230Z,991.70
2019-05-20T04:49:52.227Z,991.66
2019-05-20T04:50:52.230Z,991.74
2019-05-20T04:51:52.307Z,991.71
2019-05-20T04:52:52.187Z,991.70
2019-05-20T04:53:52.188Z,991.73
2019-05-20T04:54:52.177Z,991.73
2019-05-20T04:55:52.147Z,991.68
2019-05-20T04:56:52.206Z,991.75
2019-05-20T04:57:52.121Z,991.65
2019-05-20T04:58:52.130Z,991.69
2019-05-20T04:59:52.138Z,991.65
2019-05-20T05:00:52.099Z,991.68
2019-05-20T05:01:52.078Z,991.71
2019-05-20T05:02:52.136Z,991.72
2019-05-20T05:03:52.077Z,991.67
2019-05-20T05:04:52.061Z,991.60
2019-05-20T05:05:52.050Z,991.65
2019-05-20T05:06:52.037Z,991.69
2019-05-20T05:07:52.029Z,991.68
2019-05-20T05:08:52.019Z,991.71
2019-05-20T05:09:51.991Z,991.75
2019-05-20T05:10:52.000Z,991.80
2019-05-20T05:11:51.982Z,991.74
2019-05-20T05:12:51.968Z,991.84
2019-05-20T05:13:51.960Z,991.84
2019-05-20T05:14:51.979Z,991.82
2019-05-20T05:15:52.008Z,991.75
2019-05-20T05:16:51.932Z,991.84
2019-05-20T05:17:51.917Z,991.79
2019-05-20T05:18:51.902Z,991.78
2019-05-20T05:19:51.879Z,991.84
2019-05-20T05:20:51.930Z,991.86
2019-05-20T05:21:51.892Z,991.85
2019-05-20T05:22:51.880Z,991.88
2019-05-20T05:23:59.127Z,991.84
2019-05-20T05:24:52.849Z,991.82
2019-05-20T05:25:51.832Z,991.82
2019-05-20T05:26:51.819Z,991.84
2019-05-20T05:27:51.821Z,991.82
2019-05-20T05:28:51.810Z,991.80
2019-05-20T05:29:51.804Z,991.79
2019-05-20T05:30:51.784Z,991.76
2019-05-20T05:31:51.850Z,991.82
2019-05-20T05:32:51.766Z,991.81
2019-05-20T05:33:54.313Z,991.82
2019-05-20T05:34:51.771Z,991.90
2019-05-20T05:35:53.648Z,991.89
2019-05-20T05:36:51.724Z,991.91
2019-05-20T05:37:51.800Z,991.98
2019-05-20T05:38:51.684Z,991.96
2019-05-20T05:39:51.696Z,992.02
2019-05-20T05:40:51.711Z,992.05
2019-05-20T05:41:51.794Z,992.03
2019-05-20T05:42:51.641Z,992.06
2019-05-20T05:43:51.650Z,992.02
2019-05-20T05:44:51.628Z,992.02
2019-05-20T05:45:51.605Z,992.03
2019-05-20T05:46:51.582Z,991.98
2019-05-20T05:47:51.712Z,992.05
2019-05-20T05:48:51.597Z,992.03
2019-05-20T05:49:51.587Z,992.10
2019-05-20T05:50:51.586Z,992.11
2019-05-20T05:51:51.554Z,992.08
2019-05-20T05:52:51.541Z,992.14
2019-05-20T05:53:51.524Z,992.22
2019-05-20T05:54:51.503Z,992.17
2019-05-20T05:55:51.503Z,992.13
2019-05-20T05:56:51.494Z,992.19
2019-05-20T05:57:51.605Z,992.23
2019-05-20T05:58:51.475Z,992.25
2019-05-20T05:59:51.468Z,992.23
2019-05-20T06:00:51.491Z,992.19
2019-05-20T06:01:51.447Z,992.18
2019-05-20T06:02:51.546Z,992.18
2019-05-20T06:03:51.404Z,992.18
2019-05-20T06:04:51.423Z,992.16
2019-05-20T06:05:51.425Z,992.10
2019-05-20T06:06:51.387Z,992.08
2019-05-20T06:07:51.445Z,992.16
2019-05-20T06:08:51.416Z,992.17
2019-05-20T06:09:51.373Z,992.17
2019-05-20T06:10:51.334Z,992.15
2019-05-20T06:11:51.335Z,992.12
2019-05-20T06:12:51.330Z,992.14
2019-05-20T06:13:51.295Z,992.09
2019-05-20T06:14:51.396Z,992.18
2019-05-20T06:15:54.397Z,992.16
2019-05-20T06:16:51.276Z,992.21
2019-05-20T06:17:51.280Z,992.17
2019-05-20T06:18:51.250Z,992.22
2019-05-20T06:19:51.260Z,992.16
2019-05-20T06:20:51.350Z,992.16
2019-05-20T06:21:51.212Z,992.24
2019-05-20T06:22:51.198Z,992.26
2019-05-20T06:23:51.308Z,992.19
2019-05-20T06:24:51.746Z,992.17
2019-05-20T06:25:51.220Z,992.19
2019-05-20T06:26:51.167Z,992.22
2019-05-20T06:27:51.170Z,992.23
2019-05-20T06:28:51.171Z,992.22
2019-05-20T06:29:51.170Z,992.20
2019-05-20T06:30:51.108Z,992.20
2019-05-20T06:31:51.118Z,992.17
2019-05-20T06:32:51.108Z,992.24
2019-05-20T06:33:51.088Z,992.24
2019-05-20T06:34:51.201Z,992.19
2019-05-20T06:35:51.069Z,992.30
2019-05-20T06:36:51.039Z,992.24
2019-05-20T06:37:51.097Z,992.25
2019-05-20T06:38:51.022Z,992.28
2019-05-20T06:39:51.380Z,992.28
2019-05-20T06:40:51.129Z,992.25
2019-05-20T06:41:51.017Z,992.25
2019-05-20T06:42:51.002Z,992.37
2019-05-20T06:43:50.970Z,992.37
2019-05-20T06:44:53.896Z,992.38
2019-05-20T06:45:52.077Z,992.38
2019-05-20T06:46:50.974Z,992.39
2019-05-20T06:47:50.952Z,992.37
2019-05-20T06:48:50.939Z,992.40
2019-05-20T06:49:50.920Z,992.43
2019-05-20T06:50:50.914Z,992.48
2019-05-20T06:51:50.909Z,992.51
2019-05-20T06:52:50.951Z,992.52
2019-05-20T06:53:50.852Z,992.50
2019-05-20T06:54:50.887Z,992.49
2019-05-20T06:55:50.861Z,992.50
2019-05-20T06:56:50.973Z,992.51
2019-05-20T06:57:50.833Z,992.54
2019-05-20T06:58:50.837Z,992.50
2019-05-20T06:59:50.832Z,992.59
2019-05-20T07:00:50.820Z,992.61
2019-05-20T07:01:50.813Z,992.52
2019-05-20T07:02:52.223Z,992.63
2019-05-20T07:03:50.777Z,992.56
2019-05-20T07:04:50.733Z,992.59
2019-05-20T07:05:50.754Z,992.59
2019-05-20T07:06:50.824Z,992.60
2019-05-20T07:07:50.703Z,992.60
2019-05-20T07:08:50.713Z,992.62
2019-05-20T07:09:50.692Z,992.65
2019-05-20T07:10:50.693Z,992.65
2019-05-20T07:11:53.113Z,992.67
2019-05-20T07:12:50.668Z,992.63
2019-05-20T07:13:50.680Z,992.61
2019-05-20T07:14:50.747Z,992.68
2019-05-20T07:15:50.641Z,992.61
2019-05-20T07:16:50.689Z,992.62
2019-05-20T07:17:51.098Z,992.60
2019-05-20T07:18:50.586Z,992.64
2019-05-20T07:19:50.598Z,992.66
2019-05-20T07:20:50.586Z,992.67
2019-05-20T07:21:50.688Z,992.69
2019-05-20T07:22:55.955Z,992.64
2019-05-20T07:23:52.476Z,992.61
2019-05-20T07:24:50.552Z,992.60
2019-05-20T07:25:50.527Z,992.68
2019-05-20T07:26:50.516Z,992.64
2019-05-20T07:27:50.517Z,992.62
2019-05-20T07:28:50.590Z,992.67
2019-05-20T07:29:50.477Z,992.62
2019-05-20T07:30:50.477Z,992.69
2019-05-20T07:31:50.443Z,992.65
2019-05-20T07:32:50.482Z,992.72
2019-05-20T07:33:50.438Z,992.72
2019-05-20T07:34:50.489Z,992.71
2019-05-20T07:35:50.418Z,992.71
2019-05-20T07:37:02.656Z,992.74
2019-05-20T07:37:51.388Z,992.66
2019-05-20T07:38:50.458Z,992.70
2019-05-20T07:39:50.353Z,992.71
2019-05-20T07:40:50.443Z,992.66
2019-05-20T07:41:50.364Z,992.73
2019-05-20T07:42:50.339Z,992.80
2019-05-20T07:43:50.438Z,992.76
2019-05-20T07:44:50.337Z,992.75
2019-05-20T07:45:50.309Z,992.76
2019-05-20T07:46:50.270Z,992.80
2019-05-20T07:47:50.300Z,992.75
2019-05-20T07:48:50.432Z,992.79
2019-05-20T07:49:50.279Z,992.71
2019-05-20T07:50:50.263Z,992.78
2019-05-20T07:51:50.252Z,992.82
2019-05-20T07:52:50.249Z,992.84
2019-05-20T07:53:50.294Z,992.80
2019-05-20T07:54:50.212Z,992.82
2019-05-20T07:55:50.207Z,992.77
2019-05-20T07:56:50.188Z,992.84
2019-05-20T07:57:50.184Z,992.83
2019-05-20T07:58:50.245Z,992.79
2019-05-20T07:59:50.154Z,992.69
2019-05-20T08:00:50.158Z,992.78
2019-05-20T08:01:50.113Z,992.75
2019-05-20T08:02:50.210Z,992.70
2019-05-20T08:03:50.112Z,992.70
2019-05-20T08:04:50.164Z,992.68
2019-05-20T08:05:50.091Z,992.73
2019-05-20T08:06:50.156Z,992.72
2019-05-20T08:07:52.403Z,992.65
2019-05-20T08:08:50.054Z,992.76
2019-05-20T08:09:50.035Z,992.69
2019-05-20T08:10:50.013Z,992.74
2019-05-20T08:11:50.010Z,992.69
2019-05-20T08:12:50.013Z,992.74
2019-05-20T08:13:50.008Z,992.74
2019-05-20T08:14:49.982Z,992.79
2019-05-20T08:15:49.958Z,992.79
2019-05-20T08:16:49.965Z,992.86
2019-05-20T08:17:50.015Z,992.83
2019-05-20T08:18:49.931Z,992.88
2019-05-20T08:19:49.925Z,992.89
2019-05-20T08:20:49.925Z,992.91
2019-05-20T08:21:50.012Z,992.86
2019-05-20T08:22:49.899Z,992.88
2019-05-20T08:23:50.388Z,992.82
2019-05-20T08:24:49.874Z,992.91
2019-05-20T08:25:49.962Z,992.89
2019-05-20T08:26:49.967Z,992.90
2019-05-20T08:27:49.844Z,992.90
2019-05-20T08:28:49.806Z,992.93
2019-05-20T08:29:49.905Z,992.93
2019-05-20T08:30:49.795Z,992.96
2019-05-20T08:31:49.910Z,992.99
2019-05-20T08:32:49.785Z,992.94
2019-05-20T08:33:49.775Z,992.92
2019-05-20T08:34:49.746Z,992.99
2019-05-20T08:35:49.837Z,992.95
2019-05-20T08:36:49.747Z,992.98
2019-05-20T08:37:49.817Z,993.01
2019-05-20T08:38:49.696Z,993.02
2019-05-20T08:39:49.720Z,992.99
2019-05-20T08:40:49.809Z,993.06
2019-05-20T08:41:49.702Z,992.98
2019-05-20T08:42:49.666Z,993.04
2019-05-20T08:43:49.676Z,993.06
2019-05-20T08:44:49.660Z,993.08
2019-05-20T08:45:49.667Z,993.05
2019-05-20T08:46:49.956Z,993.09
2019-05-20T08:47:49.628Z,993.08
2019-05-20T08:48:49.593Z,993.11
2019-05-20T08:49:50.100Z,993.12
2019-05-20T08:50:49.588Z,993.09
2019-05-20T08:51:49.681Z,993.02
2019-05-20T08:52:49.604Z,993.01
2019-05-20T08:53:49.575Z,993.03
2019-05-20T08:54:49.544Z,993.03
2019-05-20T08:55:49.552Z,993.05
2019-05-20T08:56:49.545Z,993.11
2019-05-20T08:57:49.536Z,993.09
2019-05-20T08:58:49.518Z,993.08
2019-05-20T08:59:49.602Z,993.08
2019-05-20T09:00:49.493Z,993.04
2019-05-20T09:01:49.471Z,993.08
2019-05-20T09:02:49.510Z,993.12
2019-05-20T09:03:49.453Z,993.06
2019-05-20T09:04:49.441Z,993.14
2019-05-20T09:05:49.442Z,993.10
2019-05-20T09:06:49.419Z,993.09
2019-05-20T09:08:02.245Z,993.05
2019-05-20T09:08:50.370Z,992.99
2019-05-20T09:09:49.382Z,993.03
2019-05-20T09:10:49.401Z,993.06
2019-05-20T09:11:49.416Z,993.05
2019-05-20T09:12:49.364Z,993.01
2019-05-20T09:13:49.347Z,993.01
2019-05-20T09:14:49.333Z,993.06
2019-05-20T09:15:49.407Z,993.01
2019-05-20T09:16:49.307Z,993.01
2019-05-20T09:17:49.312Z,993.06
2019-05-20T09:18:49.261Z,993.09
2019-05-20T09:19:49.332Z,993.03
2019-05-20T09:20:49.266Z,993.05
2019-05-20T09:21:49.376Z,992.99
2019-05-20T09:22:49.285Z,993.08
2019-05-20T09:23:49.242Z,993.04
2019-05-20T09:24:49.492Z,993.15
2019-05-20T09:25:49.203Z,993.14
2019-05-20T09:26:49.300Z,993.12
2019-05-20T09:27:49.203Z,993.05
2019-05-20T09:28:49.155Z,993.06
2019-05-20T09:29:49.179Z,993.09
2019-05-20T09:30:49.154Z,993.05
2019-05-20T09:31:49.148Z,993.08
2019-05-20T09:32:49.250Z,993.07
2019-05-20T09:33:49.225Z,993.07
2019-05-20T09:34:49.128Z,993.06
2019-05-20T09:35:49.253Z,993.02
2019-05-20T09:36:49.095Z,993.04
2019-05-20T09:37:49.161Z,993.00
2019-05-20T09:38:49.056Z,993.01
2019-05-20T09:39:49.167Z,993.00
2019-05-20T09:40:49.067Z,992.96
2019-05-20T09:41:49.038Z,992.93
2019-05-20T09:42:49.052Z,993.02
2019-05-20T09:43:49.015Z,992.97
2019-05-20T09:44:49.005Z,993.03
2019-05-20T09:46:05.612Z,992.95
2019-05-20T09:46:49.957Z,992.97
2019-05-20T09:47:48.967Z,992.99
2019-05-20T09:48:49.066Z,992.98
2019-05-20T09:49:48.967Z,993.01
2019-05-20T09:50:49.017Z,992.95
2019-05-20T09:51:48.942Z,993.06
2019-05-20T09:52:48.900Z,993.09
2019-05-20T09:53:48.988Z,993.06
2019-05-20T09:54:48.911Z,993.03
2019-05-20T09:55:48.889Z,993.01
2019-05-20T09:56:48.882Z,993.06
2019-05-20T09:57:48.883Z,993.04
2019-05-20T09:58:48.845Z,993.08
2019-05-20T09:59:48.890Z,993.03
2019-05-20T10:00:48.830Z,993.09
2019-05-20T10:01:49.955Z,993.08
2019-05-20T10:02:48.781Z,993.15
2019-05-20T10:03:48.817Z,993.12
2019-05-20T10:04:48.791Z,993.14
2019-05-20T10:05:48.775Z,993.13
2019-05-20T10:06:48.802Z,993.10
2019-05-20T10:07:48.778Z,993.15
2019-05-20T10:08:48.741Z,993.16
2019-05-20T10:09:48.739Z,993.14
2019-05-20T10:10:48.767Z,993.14
2019-05-20T10:11:48.721Z,993.19
2019-05-20T10:12:48.695Z,993.14
2019-05-20T10:13:48.690Z,993.12
2019-05-20T10:14:52.264Z,993.12
2019-05-20T10:15:48.677Z,993.14
2019-05-20T10:16:48.652Z,993.13
2019-05-20T10:17:48.722Z,993.11
2019-05-20T10:18:48.633Z,993.14
2019-05-20T10:19:48.602Z,993.15
2019-05-20T10:20:48.600Z,993.19
2019-05-20T10:21:48.626Z,993.18
2019-05-20T10:22:48.576Z,993.14
2019-05-20T10:23:48.593Z,993.09
2019-05-20T10:24:48.573Z,993.18
2019-05-20T10:25:48.573Z,993.16
2019-05-20T10:26:48.545Z,993.13
2019-05-20T10:27:48.634Z,993.07
2019-05-20T10:28:48.518Z,993.11
2019-05-20T10:29:48.515Z,993.11
2019-05-20T10:30:48.508Z,993.04
2019-05-20T10:31:48.500Z,993.10
2019-05-20T10:32:48.576Z,993.04
2019-05-20T10:33:48.446Z,993.03
2019-05-20T10:34:48.441Z,993.07
2019-05-20T10:35:48.450Z,993.07
2019-05-20T10:36:48.463Z,993.08
2019-05-20T10:37:48.507Z,993.07
2019-05-20T10:38:58.646Z,993.10
2019-05-20T10:39:49.397Z,993.19
2019-05-20T10:40:48.391Z,993.12
2019-05-20T10:41:48.391Z,993.06
2019-05-20T10:42:48.369Z,993.16
2019-05-20T10:43:48.480Z,993.11
2019-05-20T10:44:48.363Z,993.09
2019-05-20T10:45:48.338Z,993.11
2019-05-20T10:46:48.342Z,993.11
2019-05-20T10:47:48.308Z,993.12
2019-05-20T10:48:48.294Z,993.08
2019-05-20T10:49:48.290Z,993.12
2019-05-20T10:50:48.306Z,993.08
2019-05-20T10:51:48.283Z,993.11
2019-05-20T10:52:48.273Z,993.11
2019-05-20T10:53:48.250Z,993.12
2019-05-20T10:54:48.341Z,993.19
2019-05-20T10:55:48.234Z,993.13
2019-05-20T10:56:48.234Z,993.15
2019-05-20T10:57:48.210Z,993.18
2019-05-20T10:58:48.180Z,993.13
2019-05-20T10:59:48.191Z,993.10
2019-05-20T11:01:01.673Z,993.13
2019-05-20T11:01:49.176Z,993.13
2019-05-20T11:02:48.132Z,993.20
2019-05-20T11:03:48.143Z,993.14
2019-05-20T11:04:48.166Z,993.09
2019-05-20T11:05:48.206Z,993.18
2019-05-20T11:06:48.121Z,993.20
2019-05-20T11:07:48.128Z,993.11
2019-05-20T11:08:48.140Z,993.21
2019-05-20T11:09:48.193Z,993.22
2019-05-20T11:10:48.066Z,993.23
2019-05-20T11:11:48.060Z,993.18
2019-05-20T11:12:48.026Z,993.26
2019-05-20T11:13:48.042Z,993.28
2019-05-20T11:14:48.187Z,993.32
2019-05-20T11:15:48.125Z,993.34
2019-05-20T11:16:47.977Z,993.24
2019-05-20T11:17:47.988Z,993.26
2019-05-20T11:18:47.976Z,993.21
2019-05-20T11:19:47.980Z,993.21
2019-05-20T11:20:47.970Z,993.20
2019-05-20T11:21:48.088Z,993.16
2019-05-20T11:22:47.907Z,993.15
2019-05-20T11:23:47.926Z,993.18
2019-05-20T11:24:47.887Z,993.20
2019-05-20T11:25:47.906Z,993.21
2019-05-20T11:26:47.893Z,993.16
2019-05-20T11:27:47.997Z,993.27
2019-05-20T11:28:47.882Z,993.26
2019-05-20T11:29:47.840Z,993.24
2019-05-20T11:30:47.837Z,993.37
2019-05-20T11:31:47.908Z,993.29
2019-05-20T11:32:47.934Z,993.34
2019-05-20T11:33:47.820Z,993.28
2019-05-20T11:34:47.908Z,993.27
2019-05-20T11:35:47.804Z,993.25
2019-05-20T11:36:47.780Z,993.19
2019-05-20T11:37:47.772Z,993.21
2019-05-20T11:38:47.841Z,993.15
2019-05-20T11:39:47.751Z,993.18
2019-05-20T11:40:47.711Z,993.17
2019-05-20T11:41:53.199Z,993.18
2019-05-20T11:42:48.706Z,993.13
2019-05-20T11:43:47.721Z,993.15
2019-05-20T11:44:47.737Z,993.20
2019-05-20T11:45:47.692Z,993.26
2019-05-20T11:46:47.763Z,993.16
2019-05-20T11:47:47.667Z,993.13
2019-05-20T11:48:47.690Z,993.16
2019-05-20T11:49:47.643Z,993.16
2019-05-20T11:50:47.604Z,993.11
2019-05-20T11:51:47.655Z,993.16
2019-05-20T11:52:47.684Z,993.11
2019-05-20T11:53:47.575Z,993.14
2019-05-20T11:54:47.714Z,993.13
2019-05-20T11:55:47.611Z,993.15
2019-05-20T11:56:47.561Z,993.22
2019-05-20T11:57:47.675Z,993.10
2019-05-20T11:58:47.527Z,993.13
2019-05-20T11:59:47.535Z,993.10
2019-05-20T12:00:47.526Z,993.10
2019-05-20T12:01:47.526Z,993.12
2019-05-20T12:02:47.511Z,993.11
2019-05-20T12:03:47.577Z,993.07
2019-05-20T12:04:47.549Z,993.05
2019-05-20T12:05:47.466Z,993.08
2019-05-20T12:06:47.467Z,993.11
2019-05-20T12:07:47.558Z,993.14
2019-05-20T12:08:47.421Z,993.16
2019-05-20T12:09:49.993Z,993.14
2019-05-20T12:10:47.399Z,993.21
2019-05-20T12:11:47.400Z,993.26
2019-05-20T12:12:47.419Z,993.20
2019-05-20T12:13:47.393Z,993.19
2019-05-20T12:14:47.556Z,993.18
2019-05-20T12:15:47.360Z,993.14
2019-05-20T12:16:47.362Z,993.06
2019-05-20T12:17:47.341Z,993.12
2019-05-20T12:18:47.331Z,993.10
2019-05-20T12:19:47.420Z,993.12
2019-05-20T12:20:47.289Z,993.07
2019-05-20T12:21:47.311Z,992.98
2019-05-20T12:22:47.282Z,993.02
2019-05-20T12:23:47.285Z,993.03
2019-05-20T12:24:47.325Z,993.03
2019-05-20T12:25:47.262Z,993.05
2019-05-20T12:26:47.222Z,992.99
2019-05-20T12:27:47.229Z,992.96
2019-05-20T12:28:47.236Z,993.01